Time;durP1;ratioP1;P1;durP2;ratioP2;P2;SDS_P1;SDS_P2;PMS_P1;PMS_P2;Temp;Humidity;BMP_temperature;BMP_pressure;BME280_temperature;BME280_humidity;BME280_pressure;Samples;Min_cycle;Max_cycle;Signal;HPM_P1;HPM_P2
2024/04/29 00:00:27;;;;;;;1.77;0.40;;;;;;;5.81;52.00;101666.13;5287350;26;20192;-78
2024/04/29 00:02:52;;;;;;;0.43;0.20;;;;;;;5.88;51.73;101666.94;5293276;26;20036;-78
2024/04/29 00:05:18;;;;;;;0.88;0.40;;;;;;;5.84;51.62;101675.66;5291520;26;20013;-79
2024/04/29 00:07:43;;;;;;;1.85;0.55;;;;;;;5.79;52.31;101678.28;5313224;26;20021;-80
2024/04/29 00:10:09;;;;;;;3.25;0.60;;;;;;;5.76;51.91;101675.69;5288414;26;20009;-78
2024/04/29 00:12:34;;;;;;;2.75;0.40;;;;;;;5.79;51.96;101683.47;5287941;26;20024;-79
2024/04/29 00:15:00;;;;;;;2.35;0.77;;;;;;;5.81;51.99;101683.44;5291614;26;20024;-79
2024/04/29 00:17:25;;;;;;;1.00;0.50;;;;;;;5.78;52.21;101680.88;5286973;26;20014;-78
2024/04/29 00:19:51;;;;;;;4.05;0.57;;;;;;;5.79;52.35;101682.59;5283157;26;20076;-76
2024/04/29 00:22:16;;;;;;;5.13;0.68;;;;;;;5.75;52.31;101686.94;5286934;26;20318;-76
2024/04/29 00:24:41;;;;;;;3.72;0.77;;;;;;;5.76;52.48;101682.63;5293093;26;20046;-79
2024/04/29 00:27:08;;;;;;;2.08;0.52;;;;;;;5.73;52.32;101688.69;5297139;26;20019;-78
2024/04/29 00:29:33;;;;;;;1.38;0.60;;;;;;;5.80;52.39;101692.09;5290924;26;20013;-77
2024/04/29 00:31:59;;;;;;;1.00;0.30;;;;;;;5.83;52.69;101694.66;5286736;26;20550;-75
2024/04/29 00:34:24;;;;;;;1.48;0.40;;;;;;;5.84;52.33;101697.25;5288860;26;20013;-76
2024/04/29 00:36:49;;;;;;;2.55;0.70;;;;;;;5.81;51.96;101704.19;5286909;26;20459;-76
2024/04/29 00:39:15;;;;;;;0.70;0.47;;;;;;;5.77;51.89;101694.69;5294556;26;20010;-75
2024/04/29 00:41:41;;;;;;;3.60;0.40;;;;;;;5.75;52.09;101702.50;5287955;26;20021;-76
2024/04/29 00:44:07;;;;;;;7.32;0.65;;;;;;;5.75;52.14;101704.22;5324038;26;20384;-75
2024/04/29 00:46:33;;;;;;;2.17;0.47;;;;;;;5.81;52.28;101707.63;5288317;26;20412;-76
2024/04/29 00:48:58;;;;;;;1.60;0.38;;;;;;;5.73;51.87;101711.19;5344729;26;20009;-77
2024/04/29 00:51:25;;;;;;;2.53;0.45;;;;;;;5.60;52.20;101710.38;5287176;26;20020;-77
2024/04/29 00:53:52;;;;;;;1.13;0.60;;;;;;;5.55;52.11;101714.75;5325700;26;20148;-80
2024/04/29 00:56:17;;;;;;;1.00;0.32;;;;;;;5.50;52.26;101711.28;5290109;26;20357;-75
2024/04/29 00:58:44;;;;;;;1.85;0.60;;;;;;;5.49;52.36;101714.78;5294486;26;20045;-76
2024/04/29 01:01:10;;;;;;;2.22;0.40;;;;;;;5.45;52.33;101719.94;5331268;26;20017;-76
2024/04/29 01:03:36;;;;;;;1.38;0.60;;;;;;;5.39;52.54;101719.13;5283390;26;20080;-79
2024/04/29 01:06:02;;;;;;;2.22;0.20;;;;;;;5.36;52.69;101719.16;5288960;26;20531;-76
2024/04/29 01:08:27;;;;;;;1.92;0.40;;;;;;;5.33;52.66;101720.03;5265850;26;20012;-75
2024/04/29 01:10:53;;;;;;;1.55;0.50;;;;;;;5.31;52.53;101720.91;5291331;26;20020;-78
2024/04/29 01:13:19;;;;;;;1.08;0.30;;;;;;;5.25;52.62;101733.00;5291980;26;20019;-76
2024/04/29 01:15:44;;;;;;;0.90;0.40;;;;;;;5.17;52.78;101718.38;5292965;26;20078;-76
2024/04/29 01:18:10;;;;;;;1.90;0.40;;;;;;;5.08;52.79;101724.47;5290969;26;20237;-76
2024/04/29 01:20:35;;;;;;;3.05;0.50;;;;;;;5.05;53.03;101727.03;5287424;26;20836;-77
2024/04/29 01:23:01;;;;;;;1.48;0.43;;;;;;;5.15;52.44;101720.13;5295589;26;20009;-80
2024/04/29 01:25:26;;;;;;;1.75;0.82;;;;;;;5.04;52.81;101730.50;5286926;26;20565;-76
2024/04/29 01:27:52;;;;;;;0.63;0.30;;;;;;;4.98;53.13;101740.88;5284639;26;20361;-76
2024/04/29 01:30:17;;;;;;;2.38;0.30;;;;;;;4.93;53.10;101737.44;5289324;26;20346;-78
2024/04/29 01:32:43;;;;;;;0.93;0.38;;;;;;;4.90;53.15;101740.03;5286820;26;20021;-76
2024/04/29 01:35:09;;;;;;;0.88;0.40;;;;;;;4.87;53.54;101740.03;5321257;26;20018;-76
2024/04/29 01:37:34;;;;;;;0.95;0.30;;;;;;;4.89;53.34;101743.50;5296027;26;20364;-76
2024/04/29 01:39:59;;;;;;;1.42;0.60;;;;;;;4.84;53.28;101741.75;5312875;26;20051;-77
2024/04/29 01:42:25;;;;;;;1.20;0.47;;;;;;;4.81;53.21;101752.13;5333291;26;20010;-76
2024/04/29 01:44:50;;;;;;;0.90;0.25;;;;;;;4.81;53.12;101751.25;5303169;26;20013;-75
2024/04/29 01:47:16;;;;;;;0.75;0.40;;;;;;;4.77;53.67;101755.59;5337404;26;20017;-76
2024/04/29 01:49:42;;;;;;;3.88;0.50;;;;;;;4.79;53.57;101761.63;5301090;26;20021;-76
2024/04/29 01:52:07;;;;;;;1.05;0.20;;;;;;;4.83;53.23;101760.75;5303108;26;20023;-76
2024/04/29 01:54:32;;;;;;;1.92;0.50;;;;;;;4.86;52.86;101761.63;5294434;26;20504;-75
2024/04/29 01:56:58;;;;;;;1.30;0.30;;;;;;;4.94;53.14;101759.88;5287226;26;20083;-76
2024/04/29 01:59:23;;;;;;;2.03;0.32;;;;;;;4.86;52.96;101766.81;5286743;26;20017;-76
2024/04/29 02:01:49;;;;;;;2.25;0.35;;;;;;;4.78;52.99;101777.16;5297033;26;20005;-76
2024/04/29 02:04:14;;;;;;;0.80;0.30;;;;;;;4.77;53.18;101775.44;5285280;26;20137;-75
2024/04/29 02:06:40;;;;;;;0.88;0.40;;;;;;;4.82;53.16;101784.06;5291723;26;20009;-76
2024/04/29 02:09:05;;;;;;;1.00;0.52;;;;;;;4.71;53.17;101786.66;5286581;26;20019;-79
2024/04/29 02:11:31;;;;;;;2.55;0.35;;;;;;;4.64;53.37;101790.97;5341472;26;20002;-75
2024/04/29 02:13:56;;;;;;;0.93;0.50;;;;;;;4.66;53.53;101793.59;5287153;26;20542;-76
2024/04/29 02:16:21;;;;;;;0.98;0.30;;;;;;;4.58;53.54;101790.97;5300676;26;20013;-76
2024/04/29 02:18:47;;;;;;;0.68;0.40;;;;;;;4.60;53.41;101790.97;5294558;26;20013;-76
2024/04/29 02:21:12;;;;;;;2.85;0.50;;;;;;;4.56;53.68;101799.63;5294599;26;20011;-76
2024/04/29 02:23:38;;;;;;;1.65;0.47;;;;;;;4.53;53.60;101799.63;5332187;26;20020;-76
2024/04/29 02:26:03;;;;;;;2.35;0.60;;;;;;;4.64;53.45;101801.34;5299873;26;21784;-76
2024/04/29 02:28:29;;;;;;;1.58;0.65;;;;;;;4.56;53.38;101815.16;5325094;26;20109;-75
2024/04/29 02:30:54;;;;;;;4.88;0.65;;;;;;;4.52;53.55;101808.22;5330006;26;20005;-76
2024/04/29 02:33:20;;;;;;;2.13;0.52;;;;;;;4.45;53.65;101815.13;5295727;26;20009;-76
2024/04/29 02:35:46;;;;;;;0.77;0.50;;;;;;;4.46;54.05;101822.06;5289145;26;20010;-76
2024/04/29 02:38:11;;;;;;;3.13;0.40;;;;;;;4.51;53.51;101819.47;5296696;26;20045;-76
2024/04/29 02:40:36;;;;;;;3.10;0.65;;;;;;;4.50;53.79;101828.09;5325545;26;20481;-76
2024/04/29 02:43:02;;;;;;;1.30;0.43;;;;;;;4.42;53.80;101836.72;5303520;26;20009;-77
2024/04/29 02:45:27;;;;;;;1.30;0.40;;;;;;;4.41;53.96;101829.81;5291541;26;20086;-76
2024/04/29 02:47:53;;;;;;;2.78;0.68;;;;;;;4.36;53.99;101828.06;5299004;26;20013;-76
2024/04/29 02:50:18;;;;;;;1.60;0.75;;;;;;;4.39;54.08;101826.38;5292691;26;20083;-76
2024/04/29 02:52:44;;;;;;;2.45;1.23;;;;;;;4.37;53.99;101822.06;5292466;26;20024;-76
2024/04/29 02:55:09;;;;;;;1.73;0.80;;;;;;;4.35;54.39;101823.78;5305744;26;20082;-75
2024/04/29 02:57:38;;;;;;;3.35;0.57;;;;;;;4.43;54.39;101825.50;5316154;26;20470;-77
2024/04/29 03:00:04;;;;;;;1.23;0.60;;;;;;;4.49;53.69;101821.19;5294376;26;20753;-76
2024/04/29 03:02:30;;;;;;;1.13;0.63;;;;;;;4.51;53.75;101824.66;5305171;26;20001;-75
2024/04/29 03:04:55;;;;;;;2.17;0.60;;;;;;;4.41;53.79;101824.66;5291366;26;20714;-75
2024/04/29 03:07:21;;;;;;;1.50;0.80;;;;;;;4.36;54.23;101828.06;5303917;26;20103;-76
2024/04/29 03:09:46;;;;;;;1.33;0.70;;;;;;;4.37;54.51;101830.69;5304220;26;20018;-75
2024/04/29 03:12:11;;;;;;;1.45;0.88;;;;;;;4.35;54.44;101829.81;5295947;26;20111;-78
2024/04/29 03:14:38;;;;;;;4.43;1.10;;;;;;;4.36;54.43;101822.91;5309289;26;20019;-75
2024/04/29 03:17:04;;;;;;;1.08;0.60;;;;;;;4.41;54.69;101823.78;5290953;26;20112;-77
2024/04/29 03:19:30;;;;;;;4.25;1.38;;;;;;;4.48;54.57;101824.66;5301201;26;20009;-76
2024/04/29 03:21:55;;;;;;;2.65;0.73;;;;;;;4.47;54.62;101822.91;5273343;26;20017;-76
2024/04/29 03:24:22;;;;;;;1.20;0.80;;;;;;;4.59;53.82;101831.56;5335252;26;20021;-76
2024/04/29 03:26:47;;;;;;;3.00;0.60;;;;;;;4.66;53.73;101835.00;5337968;26;20033;-76
2024/04/29 03:29:13;;;;;;;2.00;0.60;;;;;;;4.71;53.54;101842.78;5290215;26;20453;-76
2024/04/29 03:31:38;;;;;;;1.10;0.52;;;;;;;4.54;53.65;101835.00;5294616;26;20005;-77
2024/04/29 03:34:03;;;;;;;1.30;0.70;;;;;;;4.53;53.46;101833.28;5319570;26;20021;-77
2024/04/29 03:36:29;;;;;;;2.13;0.88;;;;;;;4.60;53.63;101829.81;5277978;26;20006;-78
2024/04/29 03:38:54;;;;;;;1.77;0.82;;;;;;;4.67;53.88;101835.88;5254628;26;20024;-76
2024/04/29 03:41:20;;;;;;;3.63;0.88;;;;;;;4.69;53.34;101844.50;5334988;26;20023;-76
2024/04/29 03:43:45;;;;;;;2.45;0.80;;;;;;;4.70;53.09;101839.34;5290297;26;20053;-77
2024/04/29 03:46:11;;;;;;;2.92;0.90;;;;;;;4.55;53.14;101853.13;5301227;26;20394;-76
2024/04/29 03:48:36;;;;;;;1.17;0.70;;;;;;;4.59;53.44;101851.41;5293839;26;20294;-76
2024/04/29 03:51:07;;;;;;;1.13;1.02;;;;;;;4.48;53.46;101850.53;5292440;26;20346;-77
2024/04/29 03:53:32;;;;;;;1.67;0.77;;;;;;;4.49;53.35;101844.50;5340658;26;20009;-76
2024/04/29 03:55:58;;;;;;;2.08;1.00;;;;;;;4.35;53.64;101855.69;5291330;26;20037;-77
2024/04/29 03:58:24;;;;;;;2.85;1.05;;;;;;;4.42;53.54;101857.41;5300114;26;20090;-77
2024/04/29 04:00:49;;;;;;;1.70;1.00;;;;;;;4.41;53.39;101855.72;5295302;26;20021;-75
2024/04/29 04:03:14;;;;;;;2.33;0.88;;;;;;;4.31;53.38;101859.13;5296128;26;20075;-76
2024/04/29 04:05:40;;;;;;;2.83;0.90;;;;;;;4.16;53.95;101865.16;5273226;26;20729;-76
2024/04/29 04:08:06;;;;;;;1.35;0.90;;;;;;;4.05;54.56;101866.84;5272505;26;20451;-77
2024/04/29 04:10:31;;;;;;;1.85;0.98;;;;;;;4.06;54.38;101867.69;5300186;26;20064;-76
2024/04/29 04:12:56;;;;;;;5.50;1.23;;;;;;;4.17;54.31;101863.41;5285639;26;20048;-77
2024/04/29 04:15:22;;;;;;;5.38;1.45;;;;;;;4.07;54.49;101865.09;5291760;26;21302;-77
2024/04/29 04:17:47;;;;;;;2.42;0.88;;;;;;;4.02;54.35;101866.81;5297050;26;20012;-76
2024/04/29 04:20:13;;;;;;;1.60;1.00;;;;;;;3.99;55.25;101872.84;5296221;26;20104;-76
2024/04/29 04:22:39;;;;;;;2.78;1.35;;;;;;;4.02;54.76;101872.84;5291237;26;20013;-76
2024/04/29 04:25:05;;;;;;;2.53;1.17;;;;;;;4.01;55.11;101873.72;5342366;26;20005;-77
2024/04/29 04:27:30;;;;;;;2.25;1.35;;;;;;;4.12;54.98;101885.81;5321942;26;20001;-77
2024/04/29 04:29:56;;;;;;;3.85;1.10;;;;;;;4.22;54.90;101885.84;5297081;26;20017;-77
2024/04/29 04:32:21;;;;;;;2.65;1.55;;;;;;;4.19;54.82;101885.00;5291774;26;20488;-76
2024/04/29 04:34:46;;;;;;;3.63;1.45;;;;;;;4.22;55.03;101885.00;5293418;26;20004;-77
2024/04/29 04:37:12;;;;;;;2.25;1.60;;;;;;;4.31;55.25;101887.59;5286623;26;24825;-77
2024/04/29 04:39:37;;;;;;;2.63;1.30;;;;;;;4.47;55.20;101896.25;5321334;26;20045;-76
2024/04/29 04:42:03;;;;;;;1.13;0.95;;;;;;;4.71;55.61;101892.84;5319707;26;20017;-76
2024/04/29 04:44:28;;;;;;;1.90;1.33;;;;;;;5.07;54.88;101896.34;5283690;26;20345;-77
2024/04/29 04:46:54;;;;;;;2.92;1.60;;;;;;;5.39;54.43;101900.59;5293541;26;20023;-76
2024/04/29 04:49:20;;;;;;;2.45;1.33;;;;;;;5.61;53.56;101894.53;5341210;26;20019;-78
2024/04/29 04:51:45;;;;;;;1.35;1.20;;;;;;;5.80;53.39;101899.66;5290176;26;20004;-77
2024/04/29 04:54:11;;;;;;;2.72;1.35;;;;;;;5.82;52.87;101906.56;5294097;26;20075;-77
2024/04/29 04:56:36;;;;;;;2.17;1.58;;;;;;;5.88;52.46;101908.25;5276545;26;20005;-76
2024/04/29 04:59:01;;;;;;;2.15;0.95;;;;;;;5.92;52.60;101907.38;5296281;26;20009;-76
2024/04/29 05:01:27;;;;;;;2.70;1.30;;;;;;;6.01;52.53;101907.31;5285419;26;20017;-77
2024/04/29 05:03:52;;;;;;;3.17;1.30;;;;;;;6.15;52.45;101901.22;5295700;26;20017;-77
2024/04/29 05:06:18;;;;;;;1.85;1.00;;;;;;;6.28;52.15;101910.69;5269457;26;20005;-76
2024/04/29 05:08:43;;;;;;;1.52;1.20;;;;;;;6.30;51.43;101919.34;5289186;26;20024;-77
2024/04/29 05:11:09;;;;;;;2.60;1.27;;;;;;;6.20;52.07;101922.84;5285850;26;20001;-76
2024/04/29 05:13:34;;;;;;;2.75;1.40;;;;;;;6.15;52.10;101924.56;5285507;26;20095;-76
2024/04/29 05:16:00;;;;;;;2.03;1.50;;;;;;;6.14;52.03;101928.06;5289720;26;20001;-77
2024/04/29 05:18:25;;;;;;;2.45;1.50;;;;;;;6.09;52.18;101928.06;5292684;26;20009;-76
2024/04/29 05:20:50;;;;;;;2.38;1.13;;;;;;;6.07;52.42;101925.47;5293280;26;20065;-77
2024/04/29 05:23:16;;;;;;;2.42;1.20;;;;;;;6.07;52.48;101928.06;5285731;26;20585;-77
2024/04/29 05:25:42;;;;;;;4.70;1.25;;;;;;;6.22;52.38;101932.34;5297010;26;20680;-78
2024/04/29 05:28:09;;;;;;;5.40;1.63;;;;;;;6.31;52.49;101931.47;5282842;26;20020;-77
2024/04/29 05:30:35;;;;;;;3.30;1.30;;;;;;;7.95;51.20;101932.66;5288314;26;20018;-76
2024/04/29 05:33:00;;;;;;;6.32;1.38;;;;;;;9.19;46.45;101926.56;5284895;26;20005;-75
2024/04/29 05:35:26;;;;;;;4.47;1.67;;;;;;;9.88;45.51;101927.91;5296812;26;20053;-75
2024/04/29 05:37:52;;;;;;;2.97;1.02;;;;;;;9.76;43.46;101934.16;5295364;26;20013;-75
2024/04/29 05:40:19;;;;;;;3.20;0.95;;;;;;;9.09;44.34;101925.84;5338272;26;20020;-75
2024/04/29 05:42:45;;;;;;;1.65;1.23;;;;;;;8.50;46.25;101940.66;5285733;26;20012;-74
2024/04/29 05:45:10;;;;;;;3.13;1.63;;;;;;;8.64;47.05;101943.91;5288255;26;20010;-75
2024/04/29 05:47:36;;;;;;;2.20;1.38;;;;;;;10.09;45.91;101944.00;5317234;26;20364;-75
2024/04/29 05:50:02;;;;;;;1.65;1.15;;;;;;;12.94;39.12;101938.19;5284951;26;20021;-76
2024/04/29 05:52:30;;;;;;;1.92;1.08;;;;;;;15.83;33.96;101941.91;5328497;26;20379;-75
2024/04/29 05:54:59;;;;;;;3.95;0.80;;;;;;;17.78;30.61;101940.25;5272292;26;20012;-75
2024/04/29 05:57:24;;;;;;;3.88;1.20;;;;;;;17.70;30.78;101942.47;5284058;26;20550;-76
2024/04/29 05:59:50;;;;;;;2.80;0.77;;;;;;;15.57;32.23;101955.31;5289703;26;20009;-75
2024/04/29 06:02:18;;;;;;;1.52;0.60;;;;;;;14.13;34.58;101953.25;5297458;26;20012;-75
2024/04/29 06:04:44;;;;;;;2.00;0.80;;;;;;;14.15;34.86;101956.69;5311169;26;20267;-76
2024/04/29 06:07:10;;;;;;;2.33;0.73;;;;;;;15.94;33.68;101955.44;5283209;26;20009;-76
2024/04/29 06:09:35;;;;;;;1.27;0.40;;;;;;;17.72;30.36;101940.59;5315507;26;20515;-75
2024/04/29 06:12:02;;;;;;;1.70;0.50;;;;;;;18.70;28.40;101940.44;5344303;26;20767;-76
2024/04/29 06:14:31;;;;;;;3.17;0.43;;;;;;;19.51;28.16;101942.72;5316789;26;20558;-76
2024/04/29 06:16:56;;;;;;;1.88;0.80;;;;;;;19.20;27.83;101949.88;5292336;26;20020;-76
2024/04/29 06:19:22;;;;;;;1.33;0.47;;;;;;;19.14;27.34;101952.91;5285079;26;20012;-76
2024/04/29 06:21:47;;;;;;;2.80;0.63;;;;;;;19.05;28.30;101950.78;5291518;26;20012;-76
2024/04/29 06:24:13;;;;;;;2.47;0.75;;;;;;;19.39;26.96;101949.66;5269557;26;20014;-76
2024/04/29 06:26:38;;;;;;;2.13;0.52;;;;;;;19.38;27.34;101955.03;5289362;26;20019;-76
2024/04/29 06:29:04;;;;;;;1.85;0.60;;;;;;;19.53;27.09;101959.41;5296501;26;20091;-76
2024/04/29 06:31:29;;;;;;;0.80;0.50;;;;;;;20.34;26.21;101964.13;5299156;26;20009;-75
2024/04/29 06:33:56;;;;;;;1.17;0.40;;;;;;;20.97;25.63;101960.00;5289207;26;20015;-75
2024/04/29 06:36:22;;;;;;;1.33;0.65;;;;;;;21.65;24.44;101958.91;5280045;26;20601;-75
2024/04/29 06:38:47;;;;;;;1.10;0.50;;;;;;;21.67;25.09;101962.31;5288524;26;20152;-75
2024/04/29 06:41:13;;;;;;;0.90;0.52;;;;;;;22.04;23.75;101958.81;5287669;26;20515;-76
2024/04/29 06:43:39;;;;;;;3.83;0.77;;;;;;;22.42;24.05;101966.69;5285052;26;20009;-75
2024/04/29 06:46:07;;;;;;;1.20;0.75;;;;;;;23.60;23.01;101965.75;5287369;26;20541;-76
2024/04/29 06:48:32;;;;;;;1.75;0.88;;;;;;;22.60;23.32;101975.16;5283169;26;20010;-75
2024/04/29 06:50:58;;;;;;;1.80;0.70;;;;;;;22.73;22.65;101973.31;5295201;26;20485;-75
2024/04/29 06:53:24;;;;;;;1.85;0.40;;;;;;;23.94;21.92;101976.47;5335206;26;22324;-75
2024/04/29 06:55:49;;;;;;;3.13;0.30;;;;;;;24.47;20.80;101982.97;5285743;26;20024;-75
2024/04/29 06:58:15;;;;;;;0.75;0.35;;;;;;;22.43;22.42;101973.75;5279582;26;20483;-76
2024/04/29 07:00:40;;;;;;;1.02;0.32;;;;;;;24.05;22.08;101972.09;5288253;26;20024;-75
2024/04/29 07:03:06;;;;;;;1.00;0.45;;;;;;;23.41;22.22;101969.03;5282731;26;20006;-76
2024/04/29 07:05:31;;;;;;;1.77;0.40;;;;;;;21.68;23.19;101979.94;5289135;26;20037;-76
2024/04/29 07:07:57;;;;;;;4.22;0.40;;;;;;;22.75;22.70;101981.19;5318349;26;20002;-75
2024/04/29 07:10:23;;;;;;;1.35;0.40;;;;;;;23.85;21.54;101979.88;5314354;26;20013;-75
2024/04/29 07:12:48;;;;;;;1.17;0.40;;;;;;;23.24;22.75;101981.97;5280871;26;20055;-75
2024/04/29 07:15:14;;;;;;;3.60;0.43;;;;;;;23.37;22.20;101977.41;5295081;26;20090;-75
2024/04/29 07:17:40;;;;;;;3.13;0.50;;;;;;;23.36;22.97;101979.19;5282573;26;20095;-75
2024/04/29 07:20:06;;;;;;;1.55;0.35;;;;;;;23.83;22.73;101985.31;5288444;26;20016;-76
2024/04/29 07:22:32;;;;;;;0.73;0.65;;;;;;;24.31;21.46;101988.69;5290207;26;20557;-76
2024/04/29 07:25:01;;;;;;;1.20;0.77;;;;;;;23.83;22.17;101996.00;5292768;26;20046;-76
2024/04/29 07:27:26;;;;;;;1.63;0.40;;;;;;;23.66;22.04;101987.63;5284889;26;20398;-75
2024/04/29 07:29:52;;;;;;;1.10;0.95;;;;;;;22.70;23.04;101997.53;5346728;26;20004;-76
2024/04/29 07:32:17;;;;;;;2.10;0.65;;;;;;;23.66;22.39;101992.97;5298135;26;20087;-76
2024/04/29 07:34:43;;;;;;;0.80;0.43;;;;;;;24.15;22.18;101992.59;5306906;26;20024;-75
2024/04/29 07:37:09;;;;;;;2.97;0.52;;;;;;;24.84;21.40;101989.63;5287221;26;20040;-75
2024/04/29 07:39:34;;;;;;;1.33;0.50;;;;;;;24.59;20.71;101988.16;5285976;26;20087;-75
2024/04/29 07:42:00;;;;;;;1.90;0.80;;;;;;;25.00;20.86;101994.53;5344887;26;20006;-76
2024/04/29 07:44:25;;;;;;;2.35;1.05;;;;;;;22.98;22.84;101992.78;5286084;26;20020;-76
2024/04/29 07:46:51;;;;;;;1.70;0.63;;;;;;;23.40;22.55;101999.34;5291204;26;20482;-75
2024/04/29 07:49:16;;;;;;;1.05;0.68;;;;;;;25.16;21.58;101996.75;5287293;26;20052;-74
2024/04/29 07:51:42;;;;;;;3.03;0.95;;;;;;;24.38;21.71;102003.22;5295571;26;20508;-75
2024/04/29 07:54:08;;;;;;;1.65;0.82;;;;;;;24.03;21.61;102009.59;5289070;26;20124;-75
2024/04/29 07:56:33;;;;;;;4.65;0.93;;;;;;;23.07;21.83;102015.22;5290676;26;20091;-77
2024/04/29 07:58:59;;;;;;;1.70;0.98;;;;;;;23.25;21.98;102015.66;5287717;26;20014;-74
2024/04/29 08:01:24;;;;;;;3.00;0.93;;;;;;;23.68;22.68;102007.88;5288789;26;20021;-75
2024/04/29 08:03:50;;;;;;;1.65;0.63;;;;;;;21.88;23.63;102009.63;5286675;26;20001;-75
2024/04/29 08:06:15;;;;;;;1.95;0.70;;;;;;;22.44;23.25;102007.41;5284401;26;20084;-76
2024/04/29 08:08:41;;;;;;;1.17;0.85;;;;;;;19.57;25.91;102007.81;5278192;26;20506;-75
2024/04/29 08:11:06;;;;;;;2.20;0.85;;;;;;;21.30;24.50;102014.50;5290237;26;20094;-77
2024/04/29 08:13:32;;;;;;;2.22;0.60;;;;;;;21.77;23.92;102016.56;5311551;26;20416;-77
2024/04/29 08:15:57;;;;;;;4.63;0.68;;;;;;;23.95;22.65;102014.72;5288540;26;20025;-74
2024/04/29 08:18:23;;;;;;;2.95;0.70;;;;;;;24.27;21.62;102014.78;5312819;26;22136;-74
2024/04/29 08:20:49;;;;;;;3.75;0.75;;;;;;;24.85;20.92;102018.03;5282815;26;20009;-75
2024/04/29 08:23:14;;;;;;;2.28;0.77;;;;;;;24.33;21.33;102024.13;5289693;26;20024;-75
2024/04/29 08:25:40;;;;;;;1.42;0.60;;;;;;;24.45;20.77;102017.81;5288183;26;20024;-75
2024/04/29 08:28:06;;;;;;;5.95;1.25;;;;;;;22.54;22.47;102019.09;5287616;26;20353;-75
2024/04/29 08:30:32;;;;;;;2.00;0.90;;;;;;;23.89;22.33;102025.88;5288882;26;20009;-75
2024/04/29 08:32:57;;;;;;;1.65;0.82;;;;;;;23.82;21.91;102018.31;5285458;26;20029;-76
2024/04/29 08:35:23;;;;;;;1.60;0.82;;;;;;;23.78;22.15;102030.19;5346797;26;20252;-75
2024/04/29 08:37:48;;;;;;;2.33;1.20;;;;;;;22.86;22.59;102026.53;5284398;26;20363;-75
2024/04/29 08:40:15;;;;;;;0.90;0.60;;;;;;;23.73;22.35;102027.03;5290359;26;20021;-75
2024/04/29 08:42:43;;;;;;;1.30;0.65;;;;;;;25.00;21.30;102020.44;5284296;26;20025;-75
2024/04/29 08:45:08;;;;;;;1.33;0.68;;;;;;;24.64;21.18;102023.34;5292336;26;20033;-76
2024/04/29 08:47:34;;;;;;;1.70;0.90;;;;;;;24.12;21.96;102024.03;5266559;26;20016;-75
2024/04/29 08:50:02;;;;;;;2.97;1.00;;;;;;;22.98;22.91;102022.09;5289821;26;20010;-75
2024/04/29 08:52:27;;;;;;;1.33;0.68;;;;;;;23.36;22.79;102024.53;5287117;26;20045;-75
2024/04/29 08:54:53;;;;;;;2.95;0.90;;;;;;;22.55;23.49;102026.13;5288879;26;20002;-75
2024/04/29 08:57:19;;;;;;;1.95;1.23;;;;;;;23.19;22.88;102027.66;5286348;26;20021;-76
2024/04/29 08:59:45;;;;;;;1.65;1.10;;;;;;;23.45;22.22;102030.16;5340125;26;20618;-75
2024/04/29 09:02:12;;;;;;;2.72;0.60;;;;;;;23.02;23.33;102025.41;5318115;26;20009;-74
2024/04/29 09:04:38;;;;;;;4.20;0.57;;;;;;;21.91;24.22;102022.72;5289505;26;20032;-75
2024/04/29 09:07:05;;;;;;;2.42;0.80;;;;;;;21.27;24.85;102028.84;5288253;26;20016;-75
2024/04/29 09:09:34;;;;;;;1.85;0.75;;;;;;;21.61;24.58;102031.91;5280969;26;20021;-75
2024/04/29 09:11:59;;;;;;;1.65;1.10;;;;;;;21.42;24.19;102029.59;5269138;26;20052;-76
2024/04/29 09:14:25;;;;;;;2.97;0.77;;;;;;;20.30;26.39;102031.63;5284377;26;20033;-75
2024/04/29 09:16:57;;;;;;;3.40;0.70;;;;;;;19.80;26.61;102036.44;5292639;26;20071;-75
2024/04/29 09:19:29;;;;;;;3.30;0.60;;;;;;;20.50;27.08;102039.16;5287844;26;20024;-75
2024/04/29 09:21:55;;;;;;;1.50;0.75;;;;;;;19.63;26.77;102033.97;5286550;26;20055;-75
2024/04/29 09:24:20;;;;;;;2.83;1.05;;;;;;;19.70;26.88;102038.81;5288171;26;20009;-76
2024/04/29 09:26:47;;;;;;;0.95;0.70;;;;;;;19.76;27.32;102047.34;5330485;26;20090;-75
2024/04/29 09:29:14;;;;;;;1.77;0.77;;;;;;;19.39;28.12;102038.91;5288029;26;20645;-75
2024/04/29 09:31:51;;;;;;;1.33;0.95;;;;;;;19.21;26.84;102032.88;5263706;26;20042;-75
2024/04/29 09:34:17;;;;;;;1.73;0.50;;;;;;;18.99;27.65;102031.50;5296095;26;20009;-75
2024/04/29 09:36:43;;;;;;;4.20;0.70;;;;;;;20.06;27.01;102029.53;5280863;26;20021;-74
2024/04/29 09:39:09;;;;;;;2.17;0.50;;;;;;;20.33;26.47;102034.09;5293661;26;20459;-75
2024/04/29 09:41:44;;;;;;;4.80;0.50;;;;;;;20.05;25.83;102033.13;5282127;26;20005;-74
2024/04/29 09:44:17;;;;;;;1.60;0.20;;;;;;;18.50;27.99;102028.94;5337666;26;20045;-74
2024/04/29 09:46:46;;;;;;;2.22;0.77;;;;;;;18.91;27.89;102022.28;5284332;26;20005;-74
2024/04/29 09:49:12;;;;;;;3.78;0.60;;;;;;;18.39;27.90;102026.91;5285078;26;20016;-73
2024/04/29 09:51:39;;;;;;;2.05;0.50;;;;;;;19.45;27.67;102022.63;5286297;26;20009;-74
2024/04/29 09:54:07;;;;;;;1.60;0.45;;;;;;;19.31;27.60;102028.75;5306031;26;20031;-74
2024/04/29 09:56:33;;;;;;;1.80;0.35;;;;;;;19.65;26.35;102022.31;5311297;26;20627;-74
2024/04/29 09:59:00;;;;;;;4.57;0.77;;;;;;;20.39;25.30;102030.19;5293796;26;20514;-75
2024/04/29 10:01:26;;;;;;;1.60;0.45;;;;;;;20.86;26.41;102031.59;5302802;26;20019;-73
2024/04/29 10:03:53;;;;;;;1.60;0.95;;;;;;;21.27;25.64;102028.84;5309455;26;20020;-74
2024/04/29 10:06:19;;;;;;;1.00;0.50;;;;;;;20.69;24.64;102030.03;5291475;26;20021;-74
2024/04/29 10:09:16;;;;;;;1.02;0.43;;;;;;;20.64;26.39;102035.66;5274382;26;20693;-74
2024/04/29 10:11:45;;;;;;;1.58;0.57;;;;;;;20.83;26.29;102042.41;5272782;26;20079;-74
2024/04/29 10:14:14;;;;;;;3.22;0.65;;;;;;;20.80;26.05;102039.94;5313591;26;20017;-74
2024/04/29 10:16:41;;;;;;;1.55;0.82;;;;;;;20.50;25.68;102044.47;5277903;26;20016;-74
2024/04/29 10:19:09;;;;;;;2.35;0.57;;;;;;;19.27;25.85;102041.34;5297657;26;20005;-74
2024/04/29 10:21:44;;;;;;;1.35;0.50;;;;;;;20.33;26.64;102042.06;5283119;26;20020;-75
2024/04/29 10:24:10;;;;;;;1.20;0.77;;;;;;;21.22;25.48;102046.06;5285320;26;20006;-74
2024/04/29 10:26:36;;;;;;;1.55;0.82;;;;;;;21.47;25.39;102047.94;5285140;26;20419;-74
2024/04/29 10:29:03;;;;;;;2.28;0.50;;;;;;;20.95;25.34;102054.91;5271395;26;20057;-74
2024/04/29 10:31:28;;;;;;;0.93;0.52;;;;;;;20.06;26.45;102056.09;5260632;26;20175;-74
2024/04/29 10:33:54;;;;;;;2.40;0.63;;;;;;;20.47;26.72;102054.47;5281599;26;20724;-74
2024/04/29 10:36:19;;;;;;;4.93;0.73;;;;;;;20.41;26.77;102050.38;5285669;26;20005;-75
2024/04/29 10:38:45;;;;;;;2.75;0.95;;;;;;;20.81;27.55;102044.31;5264632;26;20029;-75
2024/04/29 10:41:14;;;;;;;2.05;1.05;;;;;;;21.13;27.42;102043.06;5306622;26;20020;-74
2024/04/29 10:43:42;;;;;;;5.13;0.95;;;;;;;20.73;25.93;102058.09;5285320;26;20005;-75
2024/04/29 10:46:08;;;;;;;2.33;1.33;;;;;;;19.63;26.76;102048.06;5283253;26;20738;-74
2024/04/29 10:48:35;;;;;;;2.55;1.52;;;;;;;18.80;28.16;102058.13;5290955;26;20546;-75
2024/04/29 10:51:00;;;;;;;1.65;0.98;;;;;;;19.25;28.11;102048.50;5285005;26;20025;-74
2024/04/29 10:53:29;;;;;;;2.65;1.10;;;;;;;20.06;27.74;102058.75;5234739;26;20086;-74
2024/04/29 10:55:57;;;;;;;1.73;1.17;;;;;;;19.60;27.05;102050.06;5279640;26;20609;-75
2024/04/29 10:58:23;;;;;;;2.30;1.10;;;;;;;20.28;25.63;102055.63;5280361;26;20009;-73
2024/04/29 11:00:53;;;;;;;1.30;0.88;;;;;;;20.45;26.79;102051.03;5294343;26;20013;-74
2024/04/29 11:03:20;;;;;;;1.42;0.65;;;;;;;20.58;25.62;102051.13;5283539;26;20002;-74
2024/04/29 11:05:46;;;;;;;4.30;1.13;;;;;;;20.19;26.08;102048.19;5283463;26;20020;-73
2024/04/29 11:08:12;;;;;;;1.08;0.70;;;;;;;21.19;25.52;102041.81;5282749;26;20009;-74
2024/04/29 11:10:38;;;;;;;2.00;1.27;;;;;;;20.70;24.89;102050.31;5284667;26;20018;-74
2024/04/29 11:13:05;;;;;;;1.13;0.70;;;;;;;21.44;24.74;102037.47;5286577;26;20535;-73
2024/04/29 11:15:31;;;;;;;2.08;0.57;;;;;;;20.90;25.65;102051.72;5279421;26;20024;-74
2024/04/29 11:17:56;;;;;;;0.95;0.52;;;;;;;20.49;25.36;102050.75;5283187;26;20021;-75
2024/04/29 11:20:22;;;;;;;1.38;0.73;;;;;;;20.30;25.51;102043.09;5275838;26;20001;-75
2024/04/29 11:22:50;;;;;;;2.15;1.05;;;;;;;20.32;25.58;102049.16;5266734;26;20747;-75